Time;durP1;ratioP1;P1;durP2;ratioP2;P2;SDS_P1;SDS_P2;PMS_P1;PMS_P2;Temp;Humidity;BMP_temperature;BMP_pressure;BME280_temperature;BME280_humidity;BME280_pressure;Samples;Min_cycle;Max_cycle;Signal;HPM_P1;HPM_P2
2023/03/20 00:00:45;;;;;;;5.32;2.47;;;17.00;45.00;;;;;;5091680;28;20191;-79
2023/03/20 00:03:15;;;;;;;4.95;2.30;;;17.00;45.00;;;;;;5093157;28;20713;-79
2023/03/20 00:05:42;;;;;;;8.15;2.75;;;17.00;45.10;;;;;;5095146;28;20532;-79
2023/03/20 00:08:09;;;;;;;8.52;2.50;;;17.00;45.00;;;;;;5095429;28;20275;-79
2023/03/20 00:10:39;;;;;;;10.32;2.80;;;17.00;45.10;;;;;;5095083;28;20232;-79
2023/03/20 00:13:10;;;;;;;7.68;2.47;;;17.00;45.10;;;;;;5095676;28;20221;-79
2023/03/20 00:15:39;;;;;;;7.80;2.72;;;17.00;45.10;;;;;;5095238;28;20259;-79
2023/03/20 00:18:17;;;;;;;8.93;2.25;;;17.00;45.10;;;;;;5094656;28;20218;-79
2023/03/20 00:20:45;;;;;;;10.40;3.15;;;17.00;45.10;;;;;;5095077;28;20189;-79
2023/03/20 00:23:12;;;;;;;7.93;2.45;;;17.00;45.20;;;;;;5095097;28;20698;-79
2023/03/20 00:25:41;;;;;;;5.15;2.78;;;17.00;45.20;;;;;;5094838;28;20651;-79
2023/03/20 00:28:31;;;;;;;8.05;2.55;;;17.00;45.20;;;;;;5095079;28;20224;-79
2023/03/20 00:30:58;;;;;;;10.30;2.65;;;17.00;45.30;;;;;;5094146;28;20199;-79
2023/03/20 00:33:27;;;;;;;5.25;2.40;;;17.00;45.30;;;;;;5095024;28;20194;-80
2023/03/20 00:35:54;;;;;;;6.38;2.20;;;17.00;45.30;;;;;;5094459;28;20225;-80
2023/03/20 00:38:21;;;;;;;6.38;2.30;;;17.00;45.20;;;;;;5094552;28;20222;-79
2023/03/20 00:40:48;;;;;;;6.43;2.67;;;17.00;45.30;;;;;;5094926;28;20194;-79
2023/03/20 00:43:15;;;;;;;5.30;2.33;;;17.00;45.30;;;;;;5094051;28;20710;-79
2023/03/20 00:45:45;;;;;;;7.22;2.80;;;17.00;45.30;;;;;;5094281;28;20721;-79
2023/03/20 00:48:14;;;;;;;8.38;2.35;;;17.00;45.30;;;;;;5094206;28;20218;-79
2023/03/20 00:50:42;;;;;;;7.32;2.60;;;17.00;45.40;;;;;;5073929;28;20734;-80
2023/03/20 00:53:11;;;;;;;5.97;2.20;;;17.00;45.30;;;;;;5074133;28;20570;-79
2023/03/20 00:55:40;;;;;;;6.90;2.40;;;17.00;45.40;;;;;;5073856;28;20194;-79
2023/03/20 00:58:07;;;;;;;7.85;2.70;;;17.00;45.40;;;;;;5074209;28;20310;-79
2023/03/20 01:00:40;;;;;;;7.82;2.25;;;17.00;45.40;;;;;;5073823;28;20549;-79
2023/03/20 01:03:14;;;;;;;9.32;2.38;;;17.00;45.40;;;;;;5074020;28;20215;-79
2023/03/20 01:05:43;;;;;;;8.30;2.45;;;17.00;45.40;;;;;;5073340;28;20640;-79
2023/03/20 01:08:13;;;;;;;6.57;2.35;;;16.90;45.40;;;;;;5073857;28;20245;-80
2023/03/20 01:10:41;;;;;;;8.18;2.55;;;17.00;45.50;;;;;;5073643;28;20187;-78
2023/03/20 01:13:17;;;;;;;6.45;2.40;;;17.00;45.50;;;;;;5073983;28;20272;-79
2023/03/20 01:15:45;;;;;;;9.43;3.00;;;17.00;45.50;;;;;;5073825;28;20186;-78
2023/03/20 01:18:14;;;;;;;7.03;2.45;;;17.00;46.20;;;;;;5073720;28;20245;-79
2023/03/20 01:20:43;;;;;;;4.60;2.10;;;17.00;45.60;;;;;;5073817;28;20195;-79
2023/03/20 01:23:10;;;;;;;10.50;2.85;;;16.90;45.50;;;;;;5073937;28;20214;-79
2023/03/20 01:25:38;;;;;;;8.15;3.03;;;17.00;45.60;;;;;;5073652;28;20256;-79
2023/03/20 01:28:14;;;;;;;7.30;2.40;;;17.00;45.60;;;;;;5073836;28;20218;-77
2023/03/20 01:30:41;;;;;;;5.30;2.70;;;16.90;45.50;;;;;;5072774;28;20292;-79
2023/03/20 01:33:14;;;;;;;8.38;2.55;;;16.90;45.50;;;;;;5073633;28;20355;-79
2023/03/20 01:35:43;;;;;;;6.72;2.30;;;16.90;45.50;;;;;;5073438;28;20190;-79
2023/03/20 01:38:13;;;;;;;7.38;2.47;;;16.90;45.50;;;;;;5072979;28;20288;-79
2023/03/20 01:40:49;;;;;;;6.25;2.22;;;16.90;45.50;;;;;;5073291;28;20618;-79
2023/03/20 01:43:18;;;;;;;7.57;2.30;;;16.90;45.60;;;;;;5072860;28;20280;-79
2023/03/20 01:45:55;;;;;;;7.95;2.42;;;17.00;45.70;;;;;;5073123;28;20245;-77
2023/03/20 01:48:25;;;;;;;6.55;2.47;;;16.90;45.70;;;;;;5074838;28;20226;-76
2023/03/20 01:50:53;;;;;;;5.38;2.20;;;16.90;45.60;;;;;;5093062;28;20678;-76
2023/03/20 01:53:24;;;;;;;5.78;2.00;;;16.90;45.60;;;;;;5093076;28;20214;-76
2023/03/20 01:55:54;;;;;;;7.38;2.50;;;16.90;45.70;;;;;;5074331;28;20666;-77
2023/03/20 01:58:27;;;;;;;8.38;2.22;;;16.90;45.70;;;;;;5072959;28;20219;-76
2023/03/20 02:00:54;;;;;;;8.35;2.38;;;16.90;45.70;;;;;;5072906;28;20187;-77
2023/03/20 02:03:23;;;;;;;7.93;2.58;;;16.90;46.40;;;;;;5072524;28;20250;-76
2023/03/20 02:05:50;;;;;;;7.85;2.55;;;16.90;45.80;;;;;;5072488;28;20248;-77
2023/03/20 02:08:24;;;;;;;5.40;2.30;;;17.00;45.90;;;;;;5072794;28;20696;-77
2023/03/20 02:10:52;;;;;;;6.97;2.47;;;16.90;45.80;;;;;;5072635;28;20218;-78
2023/03/20 02:13:20;;;;;;;6.25;2.53;;;16.90;45.80;;;;;;5072716;28;20710;-77
2023/03/20 02:15:59;;;;;;;6.57;2.30;;;16.90;45.80;;;;;;5072302;28;20741;-78
2023/03/20 02:18:27;;;;;;;4.78;2.10;;;16.90;45.80;;;;;;5072402;28;20388;-77
2023/03/20 02:21:20;;;;;;;6.30;2.67;;;16.90;45.90;;;;;;5072316;28;20186;-78
2023/03/20 02:24:17;;;;;;;5.55;2.60;;;16.90;45.90;;;;;;5010534;28;20239;-77
2023/03/20 02:26:54;;;;;;;6.95;2.83;;;16.90;46.00;;;;;;5009848;28;20300;-77
2023/03/20 02:30:00;;;;;;;9.40;2.55;;;16.90;46.00;;;;;;5010451;28;20224;-75
2023/03/20 02:33:20;;;;;;;7.85;2.53;;;16.90;46.00;;;;;;5010483;28;20306;-77
2023/03/20 02:36:10;;;;;;;6.65;2.55;;;16.80;45.90;;;;;;5010460;28;20205;-77
2023/03/20 02:38:55;;;;;;;7.38;2.42;;;16.90;46.00;;;;;;5010104;28;20235;-72
2023/03/20 02:41:28;;;;;;;8.88;2.78;;;16.90;46.00;;;;;;5010083;28;20256;-77
2023/03/20 02:44:04;;;;;;;8.05;2.40;;;16.90;46.00;;;;;;5009718;28;20717;-77
2023/03/20 02:46:38;;;;;;;5.95;2.70;;;16.90;46.00;;;;;;5010116;28;20224;-77
2023/03/20 02:49:17;;;;;;;10.05;2.80;;;16.90;46.10;;;;;;5017566;28;20216;-65
2023/03/20 02:51:50;;;;;;;7.20;2.13;;;16.90;46.20;;;;;;5029738;28;20227;-66
2023/03/20 02:54:26;;;;;;;9.18;2.70;;;16.90;46.10;;;;;;5027704;28;20206;-64
2023/03/20 02:57:01;;;;;;;5.07;2.25;;;16.90;46.10;;;;;;5010017;28;20271;-76
2023/03/20 02:59:34;;;;;;;7.30;2.63;;;16.90;46.20;;;;;;5010057;28;20192;-77
2023/03/20 03:02:06;;;;;;;8.93;2.60;;;16.90;46.20;;;;;;5064449;28;20219;-70
2023/03/20 03:04:38;;;;;;;8.48;2.28;;;16.90;46.20;;;;;;5071982;28;20727;-64
2023/03/20 03:07:08;;;;;;;8.88;2.40;;;16.90;46.20;;;;;;5072169;28;20227;-77
2023/03/20 03:09:41;;;;;;;10.38;2.65;;;16.90;46.20;;;;;;5072197;28;20215;-77
2023/03/20 03:12:14;;;;;;;9.50;2.22;;;16.90;46.30;;;;;;5072251;28;20233;-77
2023/03/20 03:14:45;;;;;;;6.80;2.22;;;16.90;46.30;;;;;;5072128;28;20187;-72
2023/03/20 03:17:14;;;;;;;6.25;2.20;;;16.90;46.30;;;;;;5072241;28;20558;-78
2023/03/20 03:19:46;;;;;;;9.30;3.50;;;16.90;46.30;;;;;;5071333;28;20194;-77
2023/03/20 03:22:14;;;;;;;6.57;2.10;;;16.90;46.40;;;;;;5071722;28;20268;-77
2023/03/20 03:24:46;;;;;;;7.00;2.40;;;16.90;46.40;;;;;;5071698;28;20234;-77
2023/03/20 03:27:18;;;;;;;9.52;2.60;;;16.90;46.50;;;;;;5071774;28;20215;-78
2023/03/20 03:29:51;;;;;;;6.72;2.47;;;16.90;46.50;;;;;;5071624;28;20715;-77
2023/03/20 03:32:31;;;;;;;9.80;2.58;;;16.90;46.50;;;;;;5071355;28;20252;-76
2023/03/20 03:34:59;;;;;;;6.47;2.30;;;16.90;46.50;;;;;;5071633;28;20237;-77
2023/03/20 03:37:41;;;;;;;6.32;2.13;;;16.90;46.50;;;;;;5071890;28;20254;-76
2023/03/20 03:40:17;;;;;;;8.23;2.35;;;16.90;46.40;;;;;;5075341;28;20237;-77
2023/03/20 03:42:51;;;;;;;7.25;2.30;;;16.90;46.60;;;;;;5075056;28;20708;-77
2023/03/20 03:45:23;;;;;;;6.95;2.55;;;16.90;46.50;;;;;;5075624;28;20199;-76
2023/03/20 03:47:54;;;;;;;8.10;2.60;;;16.90;46.60;;;;;;5075458;28;20268;-77
2023/03/20 03:50:25;;;;;;;10.45;2.50;;;16.90;46.60;;;;;;5093249;28;20752;-77
2023/03/20 03:52:57;;;;;;;5.45;2.15;;;16.90;46.60;;;;;;5095725;28;20220;-77
2023/03/20 03:55:28;;;;;;;6.40;2.55;;;16.90;46.60;;;;;;5086991;28;20657;-77
2023/03/20 03:57:59;;;;;;;10.23;2.60;;;16.90;46.60;;;;;;5075003;28;20627;-77
2023/03/20 04:00:27;;;;;;;6.95;2.22;;;16.90;46.60;;;;;;5075307;28;20252;-78
2023/03/20 04:02:56;;;;;;;6.47;2.20;;;16.90;47.30;;;;;;5074917;28;20622;-77
2023/03/20 04:05:26;;;;;;;6.68;2.58;;;16.80;46.60;;;;;;5074930;28;20187;-78
2023/03/20 04:07:56;;;;;;;7.03;2.33;;;16.80;46.70;;;;;;5074445;28;20235;-78
2023/03/20 04:10:23;;;;;;;9.52;2.58;;;16.90;46.70;;;;;;5074686;28;20704;-75
2023/03/20 04:12:52;;;;;;;5.82;2.30;;;16.90;46.80;;;;;;5075214;28;20241;-77
2023/03/20 04:15:20;;;;;;;8.27;2.42;;;16.90;46.70;;;;;;5075066;28;20703;-77
2023/03/20 04:17:47;;;;;;;4.40;2.28;;;16.80;46.70;;;;;;5074846;28;20734;-77
2023/03/20 04:20:15;;;;;;;8.50;2.17;;;16.90;46.70;;;;;;5074425;28;20191;-77
2023/03/20 04:22:42;;;;;;;6.72;2.33;;;16.90;46.80;;;;;;5074963;28;20219;-77
2023/03/20 04:25:16;;;;;;;7.43;2.53;;;16.90;46.80;;;;;;5074807;28;20187;-78
2023/03/20 04:27:43;;;;;;;6.57;2.20;;;16.90;46.80;;;;;;5074610;28;20730;-77
2023/03/20 04:30:13;;;;;;;7.32;2.83;;;16.80;46.70;;;;;;5074673;28;20215;-77
2023/03/20 04:32:40;;;;;;;6.57;2.72;;;16.80;46.70;;;;;;5074058;28;20219;-77
2023/03/20 04:35:08;;;;;;;5.95;2.40;;;16.90;46.80;;;;;;5074328;28;20194;-77
2023/03/20 04:37:35;;;;;;;7.93;2.30;;;16.90;46.80;;;;;;5074466;28;20222;-77
2023/03/20 04:40:03;;;;;;;7.13;2.70;;;16.80;46.70;;;;;;5074467;28;20191;-77
2023/03/20 04:42:30;;;;;;;5.18;1.98;;;16.80;46.70;;;;;;5074385;28;20217;-77
2023/03/20 04:44:57;;;;;;;6.88;2.40;;;16.80;46.70;;;;;;5074025;28;20303;-77
2023/03/20 04:47:25;;;;;;;6.65;2.70;;;16.80;46.70;;;;;;5074154;28;20260;-77
2023/03/20 04:49:52;;;;;;;5.32;2.47;;;16.80;46.70;;;;;;5087718;28;20749;-77
2023/03/20 04:52:19;;;;;;;8.50;2.58;;;16.80;46.70;;;;;;5094222;28;20271;-77
2023/03/20 04:54:47;;;;;;;7.65;2.72;;;16.80;47.40;;;;;;5094646;28;20609;-77
2023/03/20 04:57:15;;;;;;;7.15;2.58;;;16.80;46.80;;;;;;5073848;28;20223;-77
2023/03/20 04:59:42;;;;;;;7.40;2.13;;;16.80;46.80;;;;;;5074201;28;20202;-76
2023/03/20 05:02:13;;;;;;;7.00;2.45;;;16.80;46.80;;;;;;5074086;28;20223;-74
2023/03/20 05:04:42;;;;;;;5.30;2.33;;;16.80;46.80;;;;;;5074165;28;20222;-76
2023/03/20 05:07:09;;;;;;;9.85;2.30;;;16.80;46.90;;;;;;5073627;28;20289;-78
2023/03/20 05:09:36;;;;;;;6.07;2.33;;;16.80;46.90;;;;;;5073559;28;20578;-77
2023/03/20 05:12:04;;;;;;;7.65;2.08;;;16.80;46.90;;;;;;5074013;28;20272;-77
2023/03/20 05:14:31;;;;;;;6.82;2.28;;;16.80;46.80;;;;;;5073685;28;20186;-75
2023/03/20 05:16:58;;;;;;;6.03;2.10;;;16.80;46.90;;;;;;5073877;28;20218;-78
2023/03/20 05:19:25;;;;;;;8.90;2.35;;;16.90;47.00;;;;;;5073140;28;20727;-78
2023/03/20 05:21:53;;;;;;;8.65;2.33;;;16.80;46.90;;;;;;5073368;28;20219;-77
2023/03/20 05:24:20;;;;;;;7.10;2.00;;;16.80;47.00;;;;;;5073744;28;20191;-77
2023/03/20 05:26:47;;;;;;;8.43;2.67;;;16.80;47.00;;;;;;5073318;28;20689;-76
2023/03/20 05:29:14;;;;;;;6.30;2.45;;;16.80;47.00;;;;;;5073584;28;20616;-77
2023/03/20 05:31:41;;;;;;;8.68;2.67;;;16.80;46.90;;;;;;5072699;28;20624;-77
2023/03/20 05:34:08;;;;;;;6.20;2.30;;;16.80;47.10;;;;;;5073144;28;20198;-77
2023/03/20 05:36:35;;;;;;;9.60;2.60;;;16.80;47.10;;;;;;5073453;28;20187;-77
2023/03/20 05:39:04;;;;;;;7.35;2.58;;;16.80;47.10;;;;;;5073213;28;20720;-76
2023/03/20 05:41:31;;;;;;;9.43;2.53;;;16.80;47.10;;;;;;5072913;28;20256;-72
2023/03/20 05:43:58;;;;;;;6.13;2.40;;;16.80;47.10;;;;;;5072889;28;20198;-76
2023/03/20 05:46:25;;;;;;;6.32;2.05;;;16.80;47.10;;;;;;5037874;28;20203;-76
2023/03/20 05:48:52;;;;;;;6.88;2.42;;;16.80;47.10;;;;;;5078869;28;20816;-78
2023/03/20 05:51:19;;;;;;;7.38;2.17;;;16.80;47.10;;;;;;5093236;28;20775;-75
2023/03/20 05:53:46;;;;;;;8.00;2.60;;;16.80;47.10;;;;;;5093676;28;20237;-75
2023/03/20 05:56:15;;;;;;;6.53;2.30;;;16.80;47.10;;;;;;5084551;28;20554;-76
2023/03/20 05:58:42;;;;;;;5.72;2.38;;;16.90;47.20;;;;;;5072641;28;20248;-70
2023/03/20 06:01:09;;;;;;;6.38;2.50;;;16.90;47.10;;;;;;5072126;28;20636;-75
2023/03/20 06:03:36;;;;;;;6.75;2.25;;;16.90;47.10;;;;;;5072856;28;20596;-75
2023/03/20 06:06:03;;;;;;;7.30;2.00;;;16.90;47.10;;;;;;5072931;28;20285;-73
2023/03/20 06:08:30;;;;;;;8.02;2.60;;;17.00;47.20;;;;;;5072142;28;20275;-71
2023/03/20 06:10:57;;;;;;;5.75;2.13;;;17.00;47.10;;;;;;5072806;28;20219;-71
2023/03/20 06:13:26;;;;;;;6.90;2.25;;;17.00;47.10;;;;;;5072609;28;20218;-70
2023/03/20 06:15:53;;;;;;;6.20;2.03;;;16.90;46.90;;;;;;5072742;28;20245;-72
2023/03/20 06:18:20;;;;;;;5.72;2.30;;;17.00;47.10;;;;;;5072941;28;20268;-67
2023/03/20 06:20:51;;;;;;;8.45;2.85;;;17.00;47.00;;;;;;5072165;28;20206;-67
2023/03/20 06:23:18;;;;;;;4.45;2.28;;;17.10;47.10;;;;;;5072541;28;20472;-67
2023/03/20 06:25:45;;;;;;;7.32;2.13;;;17.10;47.00;;;;;;5072614;28;20664;-70
2023/03/20 06:28:12;;;;;;;9.05;2.30;;;17.10;47.10;;;;;;5072738;28;20284;-67
2023/03/20 06:30:41;;;;;;;8.40;2.65;;;17.10;47.10;;;;;;5072157;28;20720;-71
2023/03/20 06:33:08;;;;;;;6.85;2.70;;;17.10;47.00;;;;;;5071981;28;20283;-71
2023/03/20 06:35:36;;;;;;;5.43;2.30;;;17.10;47.10;;;;;;5072548;28;20186;-71
2023/03/20 06:38:03;;;;;;;7.20;2.33;;;17.20;47.10;;;;;;5072186;28;20237;-79
2023/03/20 06:40:30;;;;;;;6.05;1.90;;;17.20;47.00;;;;;;5072623;28;20260;-78
2023/03/20 06:42:57;;;;;;;6.82;2.30;;;17.20;47.00;;;;;;5072351;28;20688;-79
2023/03/20 06:45:24;;;;;;;3.40;2.03;;;17.20;47.00;;;;;;5071837;28;20195;-79
2023/03/20 06:47:53;;;;;;;6.10;2.20;;;17.20;47.00;;;;;;5072491;28;20222;-79
2023/03/20 06:50:20;;;;;;;6.10;2.05;;;17.20;47.00;;;;;;5090114;28;20570;-78
2023/03/20 06:52:47;;;;;;;7.05;2.33;;;17.20;47.00;;;;;;5092581;28;20218;-79
2023/03/20 06:55:15;;;;;;;5.43;2.53;;;17.20;47.00;;;;;;5092529;28;20199;-79
2023/03/20 06:57:41;;;;;;;4.72;2.08;;;17.30;47.10;;;;;;5074491;28;20230;-79
2023/03/20 07:00:10;;;;;;;10.52;2.65;;;17.30;47.00;;;;;;5072393;28;20199;-79
2023/03/20 07:02:37;;;;;;;5.85;2.28;;;17.30;47.10;;;;;;5072304;28;20258;-79
2023/03/20 07:05:06;;;;;;;5.47;2.15;;;17.30;47.00;;;;;;5071928;28;20190;-79
2023/03/20 07:07:33;;;;;;;4.25;1.90;;;17.30;47.10;;;;;;5071860;28;20556;-77
2023/03/20 07:10:01;;;;;;;7.82;2.58;;;17.30;47.10;;;;;;5071715;28;20195;-77
2023/03/20 07:12:28;;;;;;;8.63;2.33;;;17.30;47.10;;;;;;5074332;28;20230;-77
2023/03/20 07:14:55;;;;;;;4.88;2.33;;;17.40;47.10;;;;;;5076112;28;20617;-77
2023/03/20 07:17:22;;;;;;;6.15;2.15;;;17.40;47.10;;;;;;5076056;28;20254;-74
2023/03/20 07:19:49;;;;;;;5.53;1.92;;;17.40;47.10;;;;;;5075630;28;20610;-74
2023/03/20 07:22:23;;;;;;;4.65;2.03;;;17.40;47.10;;;;;;5076048;28;20269;-77
2023/03/20 07:24:50;;;;;;;4.78;2.13;;;17.40;47.00;;;;;;5076021;28;20241;-77
2023/03/20 07:27:17;;;;;;;6.47;2.08;;;17.40;47.10;;;;;;5075991;28;20222;-77
2023/03/20 07:29:45;;;;;;;5.00;2.03;;;17.40;47.00;;;;;;5075514;28;20704;-76
2023/03/20 07:32:12;;;;;;;6.15;1.92;;;17.40;47.10;;;;;;5075330;28;20234;-79
2023/03/20 07:34:39;;;;;;;5.78;2.10;;;17.50;47.10;;;;;;5076148;28;20387;-79
2023/03/20 07:37:07;;;;;;;5.47;2.42;;;17.50;47.10;;;;;;5040289;28;20226;-79
2023/03/20 07:39:35;;;;;;;3.83;1.85;;;17.50;47.10;;;;;;5075250;28;20273;-78
2023/03/20 07:42:02;;;;;;;5.97;2.10;;;17.40;47.00;;;;;;5075647;28;20225;-79
2023/03/20 07:44:29;;;;;;;6.18;2.10;;;17.50;47.10;;;;;;5074863;28;20195;-80
2023/03/20 07:46:56;;;;;;;4.68;2.08;;;17.50;47.10;;;;;;5075198;28;20211;-79
2023/03/20 07:49:25;;;;;;;8.38;2.35;;;17.50;47.10;;;;;;5085690;28;20190;-79
2023/03/20 07:51:53;;;;;;;6.53;2.83;;;17.50;47.00;;;;;;5095275;28;20229;-79
2023/03/20 07:54:20;;;;;;;4.75;2.20;;;17.50;47.00;;;;;;5095722;28;20198;-77
2023/03/20 07:56:49;;;;;;;7.30;1.92;;;17.50;47.00;;;;;;5088036;28;20290;-80
2023/03/20 07:59:16;;;;;;;5.60;2.28;;;17.60;47.10;;;;;;5074965;28;20202;-79
2023/03/20 08:01:44;;;;;;;3.83;1.90;;;17.60;47.10;;;;;;5074953;28;20191;-79
2023/03/20 08:04:11;;;;;;;5.03;1.80;;;17.60;47.10;;;;;;5075363;28;20540;-79
2023/03/20 08:06:39;;;;;;;5.75;2.30;;;17.60;47.10;;;;;;5073346;28;20187;-78
2023/03/20 08:09:07;;;;;;;5.95;1.90;;;17.60;47.10;;;;;;5074672;28;20274;-79
2023/03/20 08:11:34;;;;;;;4.90;2.10;;;17.60;47.10;;;;;;5074913;28;20246;-79
2023/03/20 08:14:02;;;;;;;5.47;2.08;;;17.60;47.10;;;;;;5074748;28;20190;-79
2023/03/20 08:16:29;;;;;;;4.82;2.10;;;17.60;47.10;;;;;;5075091;28;20191;-77
2023/03/20 08:19:00;;;;;;;6.60;1.90;;;17.60;47.10;;;;;;5074910;28;20689;-78
2023/03/20 08:21:27;;;;;;;4.78;2.10;;;17.60;47.10;;;;;;5074158;28;20198;-77
2023/03/20 08:23:54;;;;;;;6.47;1.88;;;17.60;47.10;;;;;;5074006;28;20268;-77
2023/03/20 08:26:21;;;;;;;7.55;2.13;;;17.60;47.10;;;;;;5074601;28;20555;-77
2023/03/20 08:28:48;;;;;;;5.57;2.20;;;17.70;47.20;;;;;;5074990;28;20248;-78
2023/03/20 08:31:17;;;;;;;6.43;1.95;;;17.70;47.20;;;;;;5074326;28;20245;-79
2023/03/20 08:33:45;;;;;;;4.70;2.10;;;17.70;47.20;;;;;;5074196;28;20219;-79
2023/03/20 08:36:13;;;;;;;5.63;2.00;;;17.70;47.20;;;;;;5074383;28;20661;-79
2023/03/20 08:38:40;;;;;;;6.20;2.10;;;17.70;47.20;;;;;;5074345;28;20227;-79
2023/03/20 08:41:08;;;;;;;6.90;2.13;;;17.70;47.20;;;;;;5074715;28;20198;-78
2023/03/20 08:43:35;;;;;;;6.45;1.92;;;17.70;47.20;;;;;;5074726;28;20215;-78
2023/03/20 08:46:02;;;;;;;6.05;2.00;;;17.70;47.20;;;;;;5073963;28;20260;-79
2023/03/20 08:48:30;;;;;;;5.50;2.38;;;17.70;47.20;;;;;;5077182;28;20579;-79
2023/03/20 08:50:57;;;;;;;5.97;2.03;;;17.70;47.20;;;;;;5094172;28;20235;-78
2023/03/20 08:53:24;;;;;;;5.85;2.17;;;17.80;47.20;;;;;;5094694;28;20218;-76
2023/03/20 08:55:52;;;;;;;6.65;2.10;;;17.70;47.20;;;;;;5094522;28;20182;-79
2023/03/20 08:58:20;;;;;;;5.13;1.90;;;17.80;47.20;;;;;;5077864;28;20226;-77
2023/03/20 09:00:47;;;;;;;5.53;2.00;;;17.70;47.20;;;;;;5073862;28;20608;-78
2023/03/20 09:03:16;;;;;;;7.78;2.35;;;17.80;47.20;;;;;;5074297;28;20323;-78
2023/03/20 09:05:46;;;;;;;4.35;2.03;;;17.80;47.20;;;;;;5074111;28;20244;-72
2023/03/20 09:08:14;;;;;;;6.18;2.10;;;17.70;47.20;;;;;;5074005;28;20211;-74
2023/03/20 09:10:41;;;;;;;5.75;2.30;;;17.80;47.20;;;;;;5073600;28;20252;-73
2023/03/20 09:13:08;;;;;;;5.93;2.28;;;17.80;47.20;;;;;;5073963;28;20222;-72
2023/03/20 09:15:36;;;;;;;4.63;2.17;;;17.80;47.30;;;;;;5073941;28;20594;-76
2023/03/20 09:18:03;;;;;;;7.03;2.20;;;17.80;47.30;;;;;;5073831;28;20222;-79
2023/03/20 09:20:30;;;;;;;8.00;2.28;;;17.80;47.20;;;;;;5073777;28;20191;-77
2023/03/20 09:22:59;;;;;;;6.82;2.03;;;17.80;47.20;;;;;;5073746;28;20222;-77
2023/03/20 09:25:26;;;;;;;4.22;1.77;;;17.80;47.30;;;;;;5073711;28;20362;-77
2023/03/20 09:27:55;;;;;;;5.25;2.17;;;17.80;47.20;;;;;;5073275;28;20211;-77
2023/03/20 09:30:22;;;;;;;6.55;2.10;;;17.80;47.30;;;;;;5073520;28;20213;-77
2023/03/20 09:32:50;;;;;;;5.57;2.20;;;17.80;47.30;;;;;;5074635;28;20239;-77
2023/03/20 09:35:17;;;;;;;5.50;2.00;;;17.80;47.30;;;;;;5093742;28;20186;-77
2023/03/20 09:37:44;;;;;;;5.45;2.00;;;17.80;47.20;;;;;;5093503;28;20210;-77
2023/03/20 09:40:23;;;;;;;5.18;2.00;;;17.80;47.20;;;;;;5093662;28;20182;-77
2023/03/20 09:42:58;;;;;;;7.15;2.00;;;17.80;47.30;;;;;;5093800;28;20636;-76
2023/03/20 09:45:40;;;;;;;5.07;1.85;;;17.80;47.20;;;;;;5093049;28;20270;-76
2023/03/20 09:48:14;;;;;;;3.83;1.85;;;17.80;47.30;;;;;;5093408;28;20214;-77
2023/03/20 09:50:51;;;;;;;6.53;2.13;;;17.90;47.30;;;;;;5072777;28;20657;-77
2023/03/20 09:53:25;;;;;;;7.40;2.00;;;17.80;47.30;;;;;;5073153;28;20284;-78
2023/03/20 09:55:55;;;;;;;4.82;2.22;;;17.90;47.40;;;;;;5073151;28;20186;-78
2023/03/20 09:58:26;;;;;;;6.88;2.10;;;17.90;47.40;;;;;;5086170;28;20253;-72
2023/03/20 10:00:58;;;;;;;6.35;2.20;;;17.90;47.30;;;;;;5093224;28;20182;-75
2023/03/20 10:03:30;;;;;;;4.70;2.00;;;17.90;47.40;;;;;;5093104;28;20218;-68
2023/03/20 10:06:00;;;;;;;5.68;1.95;;;17.90;47.40;;;;;;5092898;28;20589;-66
2023/03/20 10:08:30;;;;;;;5.20;2.10;;;17.90;47.40;;;;;;5093339;28;20214;-74
2023/03/20 10:11:10;;;;;;;5.20;2.03;;;17.90;47.40;;;;;;5092729;28;20569;-77
2023/03/20 10:13:54;;;;;;;5.93;1.80;;;17.90;47.40;;;;;;5093528;28;20224;-71
2023/03/20 10:16:32;;;;;;;4.80;1.92;;;17.90;47.50;;;;;;5092738;28;20182;-77
2023/03/20 10:19:06;;;;;;;5.22;1.75;;;17.90;47.40;;;;;;5093094;28;20262;-77
2023/03/20 10:21:41;;;;;;;8.13;1.95;;;17.90;47.50;;;;;;5092407;28;20232;-76
2023/03/20 10:24:18;;;;;;;3.63;1.77;;;17.90;47.50;;;;;;5092862;28;20842;-77
2023/03/20 10:26:48;;;;;;;4.70;1.90;;;17.90;47.50;;;;;;5092702;28;20192;-76
2023/03/20 10:29:24;;;;;;;6.68;2.00;;;17.90;47.50;;;;;;5092851;28;20236;-77
2023/03/20 10:31:57;;;;;;;5.18;1.88;;;17.90;47.50;;;;;;5092349;28;20222;-77
2023/03/20 10:34:39;;;;;;;6.63;2.05;;;17.90;47.50;;;;;;5092167;28;20197;-77
2023/03/20 10:37:22;;;;;;;5.07;2.20;;;17.90;47.50;;;;;;5092830;28;20230;-77
2023/03/20 10:39:59;;;;;;;4.45;1.70;;;17.90;47.50;;;;;;5092526;28;20283;-77
2023/03/20 10:42:30;;;;;;;5.63;2.17;;;17.90;47.50;;;;;;5092738;28;20213;-77
2023/03/20 10:45:01;;;;;;;4.30;1.98;;;17.90;47.50;;;;;;5092344;28;20194;-77
2023/03/20 10:47:34;;;;;;;4.72;1.95;;;17.90;47.50;;;;;;5091699;28;20222;-79
2023/03/20 10:50:05;;;;;;;5.68;1.75;;;17.90;47.50;;;;;;5076664;28;20612;-79
2023/03/20 10:52:37;;;;;;;5.80;1.70;;;17.90;47.50;;;;;;5071906;28;20642;-77
2023/03/20 10:55:10;;;;;;;4.18;1.63;;;17.90;47.50;;;;;;5072352;28;20245;-79
2023/03/20 10:57:44;;;;;;;5.43;2.00;;;17.90;47.50;;;;;;5071825;28;20218;-79
2023/03/20 11:00:18;;;;;;;5.50;1.80;;;17.90;47.50;;;;;;5072197;28;20191;-79
2023/03/20 11:02:45;;;;;;;4.30;1.70;;;17.90;47.50;;;;;;5072233;28;20264;-79
2023/03/20 11:05:23;;;;;;;6.78;1.83;;;17.90;47.50;;;;;;5072499;28;20208;-80
2023/03/20 11:08:00;;;;;;;3.83;1.60;;;17.90;47.60;;;;;;5072279;28;20246;-79
2023/03/20 11:10:31;;;;;;;8.00;1.98;;;17.90;47.50;;;;;;5071697;28;20191;-79
2023/03/20 11:13:14;;;;;;;3.92;1.55;;;18.00;47.60;;;;;;5072105;28;20234;-79
2023/03/20 11:15:41;;;;;;;6.55;1.70;;;17.90;47.50;;;;;;5071838;28;20740;-79
2023/03/20 11:18:12;;;;;;;3.25;1.77;;;18.00;47.70;;;;;;5072142;28;20283;-79
2023/03/20 11:20:45;;;;;;;4.53;1.67;;;18.00;47.60;;;;;;5071659;28;20191;-79
2023/03/20 11:23:16;;;;;;;4.85;1.88;;;18.00;47.60;;;;;;5071740;28;20214;-77
2023/03/20 11:25:50;;;;;;;4.32;1.63;;;18.00;47.70;;;;;;5071971;28;20195;-77
2023/03/20 11:28:33;;;;;;;4.65;1.90;;;18.00;47.70;;;;;;5072109;28;20305;-79
2023/03/20 11:31:03;;;;;;;4.13;1.75;;;18.00;47.70;;;;;;5071892;28;20319;-79
2023/03/20 11:33:30;;;;;;;2.78;1.80;;;18.00;47.70;;;;;;5071151;28;20700;-78
2023/03/20 11:35:59;;;;;;;5.28;1.92;;;17.90;47.60;;;;;;5072028;28;20448;-79
2023/03/20 11:38:26;;;;;;;6.28;2.17;;;18.00;47.60;;;;;;5071444;28;20280;-79
2023/03/20 11:40:55;;;;;;;4.32;1.60;;;18.00;47.70;;;;;;5071815;28;20194;-79
2023/03/20 11:43:23;;;;;;;4.50;2.15;;;18.00;47.70;;;;;;5071670;28;20277;-79
2023/03/20 11:45:56;;;;;;;3.90;1.98;;;18.00;47.70;;;;;;5071127;28;20199;-76
2023/03/20 11:48:25;;;;;;;4.03;1.85;;;18.00;47.70;;;;;;5073687;28;20284;-77
2023/03/20 11:50:59;;;;;;;4.22;1.85;;;18.00;47.70;;;;;;5091582;28;20190;-77
2023/03/20 11:53:30;;;;;;;5.30;2.10;;;18.00;47.70;;;;;;5091785;28;20229;-77
2023/03/20 11:56:09;;;;;;;3.55;1.75;;;18.00;47.70;;;;;;5091604;28;20590;-78
2023/03/20 11:58:40;;;;;;;4.35;1.73;;;18.00;47.80;;;;;;5083063;28;20305;-77
2023/03/20 12:01:13;;;;;;;5.40;2.03;;;18.00;48.40;;;;;;5074948;28;20187;-77
2023/03/20 12:03:44;;;;;;;5.13;1.85;;;18.00;47.80;;;;;;5075119;28;20283;-77
2023/03/20 12:06:15;;;;;;;7.82;2.10;;;18.10;47.90;;;;;;5075252;28;20195;-77
2023/03/20 12:08:48;;;;;;;3.22;1.55;;;18.10;47.90;;;;;;5075322;28;20215;-77
2023/03/20 12:11:36;;;;;;;4.93;1.73;;;18.00;47.80;;;;;;5074293;28;20195;-77
2023/03/20 12:14:06;;;;;;;5.13;1.70;;;18.10;48.00;;;;;;5072441;28;20319;-77
2023/03/20 12:16:36;;;;;;;2.85;1.80;;;18.10;48.00;;;;;;5074722;28;20187;-77
2023/03/20 12:19:09;;;;;;;3.60;1.58;;;18.10;47.90;;;;;;5074940;28;20211;-77
2023/03/20 12:21:44;;;;;;;4.28;1.88;;;18.10;48.00;;;;;;5074901;28;20189;-77
2023/03/20 12:24:17;;;;;;;5.32;1.77;;;18.10;48.00;;;;;;5074656;28;20644;-77
2023/03/20 12:26:51;;;;;;;5.45;2.10;;;18.10;48.00;;;;;;5075087;28;20194;-77
2023/03/20 12:29:23;;;;;;;5.80;2.03;;;18.10;48.00;;;;;;5074668;28;20218;-77
2023/03/20 12:31:56;;;;;;;5.15;1.90;;;18.10;48.00;;;;;;5074702;28;20195;-76
2023/03/20 12:34:27;;;;;;;5.25;2.05;;;18.10;48.10;;;;;;5079620;28;20405;-77
2023/03/20 12:36:56;;;;;;;4.30;1.92;;;18.10;48.10;;;;;;5094695;28;20191;-76
2023/03/20 12:39:27;;;;;;;3.17;1.55;;;18.10;48.10;;;;;;5094420;28;20317;-79
2023/03/20 12:42:06;;;;;;;4.82;1.95;;;18.10;48.10;;;;;;5094863;28;20279;-79
2023/03/20 12:44:46;;;;;;;5.05;1.88;;;18.10;48.10;;;;;;5094406;28;20647;-78
2023/03/20 12:47:34;;;;;;;6.25;2.05;;;18.10;48.20;;;;;;5094238;28;20251;-78
2023/03/20 12:50:10;;;;;;;1.83;1.58;;;18.10;48.10;;;;;;5079063;28;20241;-79
2023/03/20 12:52:48;;;;;;;3.15;1.42;;;18.10;48.20;;;;;;5074098;28;20240;-79
2023/03/20 12:55:25;;;;;;;2.63;1.42;;;18.10;48.20;;;;;;5074354;28;20240;-79
2023/03/20 12:58:05;;;;;;;2.78;1.70;;;18.20;48.30;;;;;;5074253;28;20261;-79
2023/03/20 13:00:35;;;;;;;3.67;1.60;;;18.10;48.20;;;;;;5074168;28;20268;-80
2023/03/20 13:03:16;;;;;;;2.78;1.48;;;18.10;48.20;;;;;;5074249;28;20299;-79